sensor_id;sensor_type;location;lat;lon;timestamp;P1;durP1;ratioP1;P2;durP2;ratioP2
69835;SDS011;57132;51.972;4.450;2022-09-01T00:01:16;5.65;;;3.53;;
69835;SDS011;57132;51.972;4.450;2022-09-01T00:03:48;7.95;;;3.67;;
69835;SDS011;57132;51.972;4.450;2022-09-01T00:06:17;6.30;;;3.38;;
69835;SDS011;57132;51.972;4.450;2022-09-01T00:08:47;10.27;;;3.67;;
69835;SDS011;57132;51.972;4.450;2022-09-01T00:11:13;4.82;;;3.70;;
69835;SDS011;57132;51.972;4.450;2022-09-01T00:13:39;7.63;;;3.78;;
69835;SDS011;57132;51.972;4.450;2022-09-01T00:16:05;6.93;;;4.00;;
69835;SDS011;57132;51.972;4.450;2022-09-01T00:18:30;12.15;;;3.63;;
69835;SDS011;57132;51.972;4.450;2022-09-01T00:20:56;7.53;;;4.28;;
69835;SDS011;57132;51.972;4.450;2022-09-01T00:23:24;5.38;;;3.33;;
69835;SDS011;57132;51.972;4.450;2022-09-01T00:25:50;10.40;;;4.10;;
69835;SDS011;57132;51.972;4.450;2022-09-01T00:28:15;4.88;;;3.80;;
69835;SDS011;57132;51.972;4.450;2022-09-01T00:30:41;7.13;;;4.07;;
69835;SDS011;57132;51.972;4.450;2022-09-01T00:33:08;5.70;;;4.10;;
69835;SDS011;57132;51.972;4.450;2022-09-01T00:35:33;14.57;;;4.40;;
69835;SDS011;57132;51.972;4.450;2022-09-01T00:37:58;6.57;;;3.90;;
69835;SDS011;57132;51.972;4.450;2022-09-01T00:40:24;7.00;;;4.10;;
69835;SDS011;57132;51.972;4.450;2022-09-01T00:42:49;5.22;;;3.92;;
69835;SDS011;57132;51.972;4.450;2022-09-01T00:45:14;4.97;;;4.07;;
69835;SDS011;57132;51.972;4.450;2022-09-01T00:47:40;4.38;;;3.75;;
69835;SDS011;57132;51.972;4.450;2022-09-01T00:50:06;8.00;;;3.80;;
69835;SDS011;57132;51.972;4.450;2022-09-01T00:52:38;6.85;;;4.38;;
69835;SDS011;57132;51.972;4.450;2022-09-01T00:55:43;5.88;;;4.22;;
69835;SDS011;57132;51.972;4.450;2022-09-01T00:58:06;7.13;;;4.53;;
69835;SDS011;57132;51.972;4.450;2022-09-01T01:00:33;8.10;;;4.20;;
69835;SDS011;57132;51.972;4.450;2022-09-01T01:03:06;8.77;;;3.90;;
69835;SDS011;57132;51.972;4.450;2022-09-01T01:05:34;7.32;;;4.50;;
69835;SDS011;57132;51.972;4.450;2022-09-01T01:08:03;6.65;;;4.40;;
69835;SDS011;57132;51.972;4.450;2022-09-01T01:10:32;11.45;;;4.55;;
69835;SDS011;57132;51.972;4.450;2022-09-01T01:13:01;6.68;;;4.10;;
69835;SDS011;57132;51.972;4.450;2022-09-01T01:15:32;6.80;;;4.13;;
69835;SDS011;57132;51.972;4.450;2022-09-01T01:17:58;7.20;;;4.78;;
69835;SDS011;57132;51.972;4.450;2022-09-01T01:20:24;6.43;;;4.18;;
69835;SDS011;57132;51.972;4.450;2022-09-01T01:25:55;8.07;;;4.53;;
69835;SDS011;57132;51.972;4.450;2022-09-01T01:28:24;5.53;;;3.83;;
69835;SDS011;57132;51.972;4.450;2022-09-01T01:30:59;6.25;;;4.50;;
69835;SDS011;57132;51.972;4.450;2022-09-01T01:33:35;5.63;;;4.28;;
69835;SDS011;57132;51.972;4.450;2022-09-01T01:36:08;6.70;;;4.70;;
69835;SDS011;57132;51.972;4.450;2022-09-01T01:38:40;14.10;;;4.82;;
69835;SDS011;57132;51.972;4.450;2022-09-01T01:41:09;7.30;;;4.22;;
69835;SDS011;57132;51.972;4.450;2022-09-01T01:43:35;9.15;;;4.55;;
69835;SDS011;57132;51.972;4.450;2022-09-01T01:46:01;7.18;;;4.38;;
69835;SDS011;57132;51.972;4.450;2022-09-01T01:48:30;7.72;;;4.28;;
69835;SDS011;57132;51.972;4.450;2022-09-01T01:50:59;8.20;;;4.45;;
69835;SDS011;57132;51.972;4.450;2022-09-01T01:53:25;6.53;;;4.18;;
69835;SDS011;57132;51.972;4.450;2022-09-01T01:55:51;8.65;;;4.20;;
69835;SDS011;57132;51.972;4.450;2022-09-01T01:58:17;6.68;;;3.83;;
69835;SDS011;57132;51.972;4.450;2022-09-01T02:00:45;8.10;;;4.70;;
69835;SDS011;57132;51.972;4.450;2022-09-01T02:03:12;5.05;;;3.95;;
69835;SDS011;57132;51.972;4.450;2022-09-01T02:05:43;6.05;;;4.25;;
69835;SDS011;57132;51.972;4.450;2022-09-01T02:08:09;8.18;;;4.53;;
69835;SDS011;57132;51.972;4.450;2022-09-01T02:10:37;10.55;;;4.53;;
69835;SDS011;57132;51.972;4.450;2022-09-01T02:13:06;9.63;;;4.53;;
69835;SDS011;57132;51.972;4.450;2022-09-01T02:15:33;11.80;;;4.90;;
69835;SDS011;57132;51.972;4.450;2022-09-01T02:18:19;5.13;;;4.47;;
69835;SDS011;57132;51.972;4.450;2022-09-01T02:20:49;9.70;;;4.68;;
69835;SDS011;57132;51.972;4.450;2022-09-01T02:23:16;11.10;;;4.75;;
69835;SDS011;57132;51.972;4.450;2022-09-01T02:25:47;8.77;;;4.93;;
69835;SDS011;57132;51.972;4.450;2022-09-01T02:28:15;10.52;;;5.18;;
69835;SDS011;57132;51.972;4.450;2022-09-01T02:30:46;5.78;;;4.75;;
69835;SDS011;57132;51.972;4.450;2022-09-01T02:33:16;8.93;;;4.43;;
69835;SDS011;57132;51.972;4.450;2022-09-01T02:36:06;10.85;;;4.60;;
69835;SDS011;57132;51.972;4.450;2022-09-01T02:38:31;10.45;;;4.32;;
69835;SDS011;57132;51.972;4.450;2022-09-01T02:41:00;7.50;;;4.75;;
69835;SDS011;57132;51.972;4.450;2022-09-01T02:43:27;5.93;;;4.20;;
69835;SDS011;57132;51.972;4.450;2022-09-01T02:45:55;9.88;;;4.75;;
69835;SDS011;57132;51.972;4.450;2022-09-01T02:48:31;10.60;;;5.00;;
69835;SDS011;57132;51.972;4.450;2022-09-01T02:51:00;8.50;;;4.95;;
69835;SDS011;57132;51.972;4.450;2022-09-01T02:53:30;6.78;;;4.97;;
69835;SDS011;57132;51.972;4.450;2022-09-01T02:55:59;9.93;;;5.00;;
69835;SDS011;57132;51.972;4.450;2022-09-01T02:58:26;8.18;;;5.03;;
69835;SDS011;57132;51.972;4.450;2022-09-01T03:00:54;10.13;;;5.45;;
69835;SDS011;57132;51.972;4.450;2022-09-01T03:03:21;10.52;;;4.80;;
69835;SDS011;57132;51.972;4.450;2022-09-01T03:05:49;7.40;;;5.07;;
69835;SDS011;57132;51.972;4.450;2022-09-01T03:08:19;6.95;;;5.10;;
69835;SDS011;57132;51.972;4.450;2022-09-01T03:10:45;7.15;;;4.88;;
69835;SDS011;57132;51.972;4.450;2022-09-01T03:13:13;11.30;;;5.22;;
69835;SDS011;57132;51.972;4.450;2022-09-01T03:15:40;9.70;;;5.25;;
69835;SDS011;57132;51.972;4.450;2022-09-01T03:18:07;9.00;;;5.43;;
69835;SDS011;57132;51.972;4.450;2022-09-01T03:20:35;13.13;;;5.68;;
69835;SDS011;57132;51.972;4.450;2022-09-01T03:23:02;9.13;;;5.40;;
69835;SDS011;57132;51.972;4.450;2022-09-01T03:25:33;9.65;;;5.15;;
69835;SDS011;57132;51.972;4.450;2022-09-01T03:28:00;9.23;;;5.38;;
69835;SDS011;57132;51.972;4.450;2022-09-01T03:30:31;10.55;;;5.50;;
69835;SDS011;57132;51.972;4.450;2022-09-01T03:32:59;8.55;;;6.45;;
69835;SDS011;57132;51.972;4.450;2022-09-01T03:35:26;8.85;;;5.47;;
69835;SDS011;57132;51.972;4.450;2022-09-01T03:37:56;11.43;;;5.22;;
69835;SDS011;57132;51.972;4.450;2022-09-01T03:40:24;9.05;;;5.68;;
69835;SDS011;57132;51.972;4.450;2022-09-01T03:42:56;8.73;;;5.05;;
69835;SDS011;57132;51.972;4.450;2022-09-01T03:45:23;8.38;;;5.47;;
69835;SDS011;57132;51.972;4.450;2022-09-01T03:47:49;9.13;;;5.38;;
69835;SDS011;57132;51.972;4.450;2022-09-01T03:50:18;8.63;;;5.47;;
69835;SDS011;57132;51.972;4.450;2022-09-01T03:55:13;6.93;;;5.68;;
69835;SDS011;57132;51.972;4.450;2022-09-01T03:57:42;10.32;;;5.60;;
69835;SDS011;57132;51.972;4.450;2022-09-01T04:00:08;11.13;;;5.95;;
69835;SDS011;57132;51.972;4.450;2022-09-01T04:02:44;8.27;;;5.70;;
69835;SDS011;57132;51.972;4.450;2022-09-01T04:05:11;8.65;;;5.82;;
69835;SDS011;57132;51.972;4.450;2022-09-01T04:07:37;9.32;;;5.53;;
69835;SDS011;57132;51.972;4.450;2022-09-01T04:10:02;11.70;;;6.10;;
69835;SDS011;57132;51.972;4.450;2022-09-01T04:12:28;11.18;;;5.65;;
69835;SDS011;57132;51.972;4.450;2022-09-01T04:14:54;8.32;;;5.47;;
69835;SDS011;57132;51.972;4.450;2022-09-01T04:17:20;7.40;;;5.35;;
69835;SDS011;57132;51.972;4.450;2022-09-01T04:20:04;9.10;;;6.22;;
69835;SDS011;57132;51.972;4.450;2022-09-01T04:22:32;11.13;;;6.35;;
69835;SDS011;57132;51.972;4.450;2022-09-01T04:24:59;10.55;;;6.40;;
69835;SDS011;57132;51.972;4.450;2022-09-01T04:27:25;12.45;;;6.07;;
69835;SDS011;57132;51.972;4.450;2022-09-01T04:29:51;10.60;;;6.43;;
69835;SDS011;57132;51.972;4.450;2022-09-01T04:32:17;8.35;;;5.65;;
69835;SDS011;57132;51.972;4.450;2022-09-01T04:34:45;10.27;;;5.80;;
69835;SDS011;57132;51.972;4.450;2022-09-01T04:37:12;12.38;;;6.13;;
69835;SDS011;57132;51.972;4.450;2022-09-01T04:39:47;11.02;;;6.20;;
69835;SDS011;57132;51.972;4.450;2022-09-01T04:42:20;8.52;;;5.70;;
69835;SDS011;57132;51.972;4.450;2022-09-01T04:44:47;10.30;;;6.22;;
69835;SDS011;57132;51.972;4.450;2022-09-01T04:47:13;9.30;;;5.95;;
69835;SDS011;57132;51.972;4.450;2022-09-01T04:49:40;13.95;;;6.28;;
69835;SDS011;57132;51.972;4.450;2022-09-01T04:52:06;17.63;;;5.93;;
69835;SDS011;57132;51.972;4.450;2022-09-01T04:54:31;9.70;;;6.05;;
69835;SDS011;57132;51.972;4.450;2022-09-01T04:56:58;8.50;;;6.05;;
69835;SDS011;57132;51.972;4.450;2022-09-01T04:59:24;10.50;;;5.57;;
69835;SDS011;57132;51.972;4.450;2022-09-01T05:01:51;10.07;;;6.88;;
69835;SDS011;57132;51.972;4.450;2022-09-01T05:04:24;9.02;;;6.32;;
69835;SDS011;57132;51.972;4.450;2022-09-01T05:06:52;12.07;;;6.10;;
69835;SDS011;57132;51.972;4.450;2022-09-01T05:09:25;9.48;;;5.55;;
69835;SDS011;57132;51.972;4.450;2022-09-01T05:12:01;10.82;;;6.10;;
69835;SDS011;57132;51.972;4.450;2022-09-01T05:14:39;12.93;;;6.80;;
69835;SDS011;57132;51.972;4.450;2022-09-01T05:17:12;17.48;;;6.60;;
69835;SDS011;57132;51.972;4.450;2022-09-01T05:19:42;12.82;;;6.32;;
69835;SDS011;57132;51.972;4.450;2022-09-01T05:22:11;11.85;;;6.43;;
69835;SDS011;57132;51.972;4.450;2022-09-01T05:24:38;10.68;;;6.15;;
69835;SDS011;57132;51.972;4.450;2022-09-01T05:27:04;14.10;;;7.00;;
69835;SDS011;57132;51.972;4.450;2022-09-01T05:29:30;12.57;;;6.07;;
69835;SDS011;57132;51.972;4.450;2022-09-01T05:31:56;9.85;;;6.85;;
69835;SDS011;57132;51.972;4.450;2022-09-01T05:34:23;9.98;;;6.13;;
69835;SDS011;57132;51.972;4.450;2022-09-01T05:36:56;9.52;;;6.45;;
69835;SDS011;57132;51.972;4.450;2022-09-01T05:39:24;11.55;;;6.53;;
69835;SDS011;57132;51.972;4.450;2022-09-01T05:41:50;11.88;;;6.82;;
69835;SDS011;57132;51.972;4.450;2022-09-01T05:44:17;9.60;;;6.22;;
69835;SDS011;57132;51.972;4.450;2022-09-01T05:46:46;9.13;;;5.60;;
69835;SDS011;57132;51.972;4.450;2022-09-01T05:49:14;16.92;;;6.72;;
69835;SDS011;57132;51.972;4.450;2022-09-01T05:51:43;10.38;;;6.63;;
69835;SDS011;57132;51.972;4.450;2022-09-01T05:54:16;10.85;;;6.82;;
69835;SDS011;57132;51.972;4.450;2022-09-01T05:56:47;16.20;;;6.07;;
69835;SDS011;57132;51.972;4.450;2022-09-01T05:59:13;12.27;;;6.20;;
69835;SDS011;57132;51.972;4.450;2022-09-01T06:01:40;10.90;;;6.07;;
69835;SDS011;57132;51.972;4.450;2022-09-01T06:04:06;9.35;;;6.45;;
69835;SDS011;57132;51.972;4.450;2022-09-01T06:06:35;10.15;;;5.88;;
69835;SDS011;57132;51.972;4.450;2022-09-01T06:09:02;9.15;;;5.63;;
69835;SDS011;57132;51.972;4.450;2022-09-01T06:11:29;9.38;;;5.90;;
69835;SDS011;57132;51.972;4.450;2022-09-01T06:13:56;12.77;;;5.60;;
69835;SDS011;57132;51.972;4.450;2022-09-01T06:16:23;7.93;;;5.65;;
69835;SDS011;57132;51.972;4.450;2022-09-01T06:18:49;14.75;;;5.88;;
69835;SDS011;57132;51.972;4.450;2022-09-01T06:21:17;7.05;;;5.90;;
69835;SDS011;57132;51.972;4.450;2022-09-01T06:23:43;8.30;;;6.05;;
69835;SDS011;57132;51.972;4.450;2022-09-01T06:26:16;9.40;;;6.20;;
69835;SDS011;57132;51.972;4.450;2022-09-01T06:28:42;8.98;;;5.75;;
69835;SDS011;57132;51.972;4.450;2022-09-01T06:31:09;13.20;;;6.43;;
69835;SDS011;57132;51.972;4.450;2022-09-01T06:33:36;12.25;;;7.93;;
69835;SDS011;57132;51.972;4.450;2022-09-01T06:36:01;12.10;;;9.50;;
69835;SDS011;57132;51.972;4.450;2022-09-01T06:38:28;185.35;;;176.82;;
69835;SDS011;57132;51.972;4.450;2022-09-01T06:41:03;525.40;;;498.65;;
69835;SDS011;57132;51.972;4.450;2022-09-01T06:43:34;829.08;;;777.13;;
69835;SDS011;57132;51.972;4.450;2022-09-01T06:46:01;958.28;;;887.70;;
69835;SDS011;57132;51.972;4.450;2022-09-01T06:48:27;969.90;;;895.65;;
69835;SDS011;57132;51.972;4.450;2022-09-01T06:50:54;974.80;;;897.58;;
69835;SDS011;57132;51.972;4.450;2022-09-01T06:53:23;1044.15;;;951.85;;
69835;SDS011;57132;51.972;4.450;2022-09-01T06:55:48;1053.68;;;950.80;;
69835;SDS011;57132;51.972;4.450;2022-09-01T06:58:14;1100.30;;;982.03;;
69835;SDS011;57132;51.972;4.450;2022-09-01T07:00:40;1153.13;;;995.70;;
69835;SDS011;57132;51.972;4.450;2022-09-01T07:03:07;1098.35;;;979.17;;
69835;SDS011;57132;51.972;4.450;2022-09-01T07:05:38;1123.03;;;993.58;;
69835;SDS011;57132;51.972;4.450;2022-09-01T07:08:05;1174.57;;;990.90;;
69835;SDS011;57132;51.972;4.450;2022-09-01T07:10:37;1427.22;;;997.97;;
69835;SDS011;57132;51.972;4.450;2022-09-01T07:13:15;1477.85;;;999.90;;
69835;SDS011;57132;51.972;4.450;2022-09-01T07:15:48;1580.57;;;999.90;;
69835;SDS011;57132;51.972;4.450;2022-09-01T07:18:18;1541.32;;;999.90;;
69835;SDS011;57132;51.972;4.450;2022-09-01T07:20:45;1604.97;;;999.90;;
69835;SDS011;57132;51.972;4.450;2022-09-01T07:23:13;1601.43;;;999.90;;
69835;SDS011;57132;51.972;4.450;2022-09-01T07:25:43;1662.68;;;999.90;;
69835;SDS011;57132;51.972;4.450;2022-09-01T07:28:09;1613.45;;;999.90;;
69835;SDS011;57132;51.972;4.450;2022-09-01T07:30:45;1688.18;;;999.90;;
69835;SDS011;57132;51.972;4.450;2022-09-01T07:33:13;1692.75;;;999.90;;
69835;SDS011;57132;51.972;4.450;2022-09-01T07:35:41;1663.00;;;999.90;;
69835;SDS011;57132;51.972;4.450;2022-09-01T07:38:07;1568.22;;;999.90;;
69835;SDS011;57132;51.972;4.450;2022-09-01T07:40:37;1609.43;;;999.90;;
69835;SDS011;57132;51.972;4.450;2022-09-01T07:43:05;1592.05;;;999.90;;
69835;SDS011;57132;51.972;4.450;2022-09-01T07:45:36;1549.47;;;999.90;;
69835;SDS011;57132;51.972;4.450;2022-09-01T07:48:04;1575.28;;;999.90;;
69835;SDS011;57132;51.972;4.450;2022-09-01T07:50:34;1492.15;;;999.90;;
69835;SDS011;57132;51.972;4.450;2022-09-01T07:53:01;1393.00;;;999.90;;
69835;SDS011;57132;51.972;4.450;2022-09-01T07:55:28;1389.13;;;999.90;;
69835;SDS011;57132;51.972;4.450;2022-09-01T07:57:56;1257.55;;;999.90;;
69835;SDS011;57132;51.972;4.450;2022-09-01T08:00:23;1161.72;;;999.90;;
69835;SDS011;57132;51.972;4.450;2022-09-01T08:02:48;1097.35;;;990.67;;
69835;SDS011;57132;51.972;4.450;2022-09-01T08:05:15;1051.47;;;957.38;;
69835;SDS011;57132;51.972;4.450;2022-09-01T08:07:45;994.38;;;913.53;;
69835;SDS011;57132;51.972;4.450;2022-09-01T08:10:13;942.10;;;870.53;;
69835;SDS011;57132;51.972;4.450;2022-09-01T08:12:39;899.35;;;834.88;;
69835;SDS011;57132;51.972;4.450;2022-09-01T08:15:05;857.92;;;800.20;;
69835;SDS011;57132;51.972;4.450;2022-09-01T08:17:32;800.85;;;749.42;;
69835;SDS011;57132;51.972;4.450;2022-09-01T08:19:57;672.83;;;634.45;;
69835;SDS011;57132;51.972;4.450;2022-09-01T08:22:23;497.55;;;470.65;;
69835;SDS011;57132;51.972;4.450;2022-09-01T08:24:49;504.20;;;476.95;;
69835;SDS011;57132;51.972;4.450;2022-09-01T08:27:16;327.30;;;309.67;;
69835;SDS011;57132;51.972;4.450;2022-09-01T08:29:41;409.02;;;388.00;;
69835;SDS011;57132;51.972;4.450;2022-09-01T08:32:07;306.23;;;289.70;;
69835;SDS011;57132;51.972;4.450;2022-09-01T08:34:33;222.48;;;210.73;;
69835;SDS011;57132;51.972;4.450;2022-09-01T08:36:58;220.38;;;208.90;;
69835;SDS011;57132;51.972;4.450;2022-09-01T08:39:24;197.43;;;187.13;;
69835;SDS011;57132;51.972;4.450;2022-09-01T08:47:18;269.42;;;255.00;;
69835;SDS011;57132;51.972;4.450;2022-09-01T08:49:44;214.00;;;203.27;;
69835;SDS011;57132;51.972;4.450;2022-09-01T08:52:21;282.10;;;268.00;;
69835;SDS011;57132;51.972;4.450;2022-09-01T08:54:50;443.65;;;421.77;;
69835;SDS011;57132;51.972;4.450;2022-09-01T08:57:38;540.50;;;513.90;;
69835;SDS011;57132;51.972;4.450;2022-09-01T09:00:07;634.95;;;601.38;;
69835;SDS011;57132;51.972;4.450;2022-09-01T09:02:50;660.60;;;625.47;;
69835;SDS011;57132;51.972;4.450;2022-09-01T09:08:16;674.40;;;637.10;;
69835;SDS011;57132;51.972;4.450;2022-09-01T09:11:06;567.20;;;537.55;;
69835;SDS011;57132;51.972;4.450;2022-09-01T09:16:46;616.50;;;583.55;;
69835;SDS011;57132;51.972;4.450;2022-09-01T09:21:50;615.97;;;582.65;;
69835;SDS011;57132;51.972;4.450;2022-09-01T09:25:05;733.55;;;691.92;;
69835;SDS011;57132;51.972;4.450;2022-09-01T09:27:19;659.03;;;622.20;;
69835;SDS011;57132;51.972;4.450;2022-09-01T09:29:51;739.17;;;696.95;;
69835;SDS011;57132;51.972;4.450;2022-09-01T09:32:19;659.92;;;623.92;;
69835;SDS011;57132;51.972;4.450;2022-09-01T09:34:46;761.08;;;716.70;;
69835;SDS011;57132;51.972;4.450;2022-09-01T09:42:43;788.28;;;740.38;;
69835;SDS011;57132;51.972;4.450;2022-09-01T09:45:29;837.83;;;785.05;;
69835;SDS011;57132;51.972;4.450;2022-09-01T09:47:58;850.65;;;794.85;;
69835;SDS011;57132;51.972;4.450;2022-09-01T09:50:27;877.03;;;818.33;;
69835;SDS011;57132;51.972;4.450;2022-09-01T09:53:25;891.08;;;828.88;;
69835;SDS011;57132;51.972;4.450;2022-09-01T09:58:20;888.95;;;828.53;;
69835;SDS011;57132;51.972;4.450;2022-09-01T10:03:54;925.17;;;858.03;;
69835;SDS011;57132;51.972;4.450;2022-09-01T10:06:38;949.38;;;878.85;;
69835;SDS011;57132;51.972;4.450;2022-09-01T10:09:15;947.45;;;876.60;;
69835;SDS011;57132;51.972;4.450;2022-09-01T10:11:59;932.95;;;864.03;;
69835;SDS011;57132;51.972;4.450;2022-09-01T10:14:28;947.63;;;878.10;;
69835;SDS011;57132;51.972;4.450;2022-09-01T10:17:00;933.20;;;864.13;;
69835;SDS011;57132;51.972;4.450;2022-09-01T10:19:33;936.30;;;867.13;;
69835;SDS011;57132;51.972;4.450;2022-09-01T10:21:59;953.42;;;882.88;;
69835;SDS011;57132;51.972;4.450;2022-09-01T10:24:33;919.47;;;854.05;;
69835;SDS011;57132;51.972;4.450;2022-09-01T10:27:06;943.15;;;873.22;;
69835;SDS011;57132;51.972;4.450;2022-09-01T10:29:39;947.05;;;877.15;;
69835;SDS011;57132;51.972;4.450;2022-09-01T10:32:43;942.45;;;872.15;;
69835;SDS011;57132;51.972;4.450;2022-09-01T10:35:18;953.83;;;881.78;;
69835;SDS011;57132;51.972;4.450;2022-09-01T10:37:48;952.28;;;880.67;;
69835;SDS011;57132;51.972;4.450;2022-09-01T10:40:16;948.40;;;877.50;;
69835;SDS011;57132;51.972;4.450;2022-09-01T10:42:52;959.15;;;886.08;;
69835;SDS011;57132;51.972;4.450;2022-09-01T10:45:29;966.00;;;892.88;;
69835;SDS011;57132;51.972;4.450;2022-09-01T10:50:51;984.53;;;906.20;;
69835;SDS011;57132;51.972;4.450;2022-09-01T11:01:14;979.90;;;902.17;;
69835;SDS011;57132;51.972;4.450;2022-09-01T11:03:50;982.35;;;903.65;;
69835;SDS011;57132;51.972;4.450;2022-09-01T11:09:04;962.65;;;888.63;;
69835;SDS011;57132;51.972;4.450;2022-09-01T11:14:15;965.58;;;890.25;;
69835;SDS011;57132;51.972;4.450;2022-09-01T11:16:43;971.95;;;896.78;;
69835;SDS011;57132;51.972;4.450;2022-09-01T11:19:38;966.95;;;889.80;;
69835;SDS011;57132;51.972;4.450;2022-09-01T11:22:43;969.33;;;892.95;;
69835;SDS011;57132;51.972;4.450;2022-09-01T11:27:59;1017.92;;;930.53;;
69835;SDS011;57132;51.972;4.450;2022-09-01T11:32:56;986.25;;;906.88;;
69835;SDS011;57132;51.972;4.450;2022-09-01T11:35:25;1020.42;;;932.78;;
69835;SDS011;57132;51.972;4.450;2022-09-01T11:38:00;1032.25;;;939.83;;
69835;SDS011;57132;51.972;4.450;2022-09-01T11:40:29;1009.65;;;924.78;;
69835;SDS011;57132;51.972;4.450;2022-09-01T11:42:56;1024.30;;;933.20;;
69835;SDS011;57132;51.972;4.450;2022-09-01T11:45:26;1061.97;;;957.92;;
69835;SDS011;57132;51.972;4.450;2022-09-01T11:48:05;1068.05;;;958.60;;
69835;SDS011;57132;51.972;4.450;2022-09-01T11:50:35;1066.07;;;955.22;;
69835;SDS011;57132;51.972;4.450;2022-09-01T11:55:29;1061.78;;;959.20;;
69835;SDS011;57132;51.972;4.450;2022-09-01T11:57:56;1057.13;;;954.10;;
69835;SDS011;57132;51.972;4.450;2022-09-01T12:00:26;1057.50;;;952.83;;
69835;SDS011;57132;51.972;4.450;2022-09-01T12:02:55;1071.78;;;964.17;;
69835;SDS011;57132;51.972;4.450;2022-09-01T12:05:55;1057.10;;;955.95;;
69835;SDS011;57132;51.972;4.450;2022-09-01T12:08:16;1039.53;;;943.58;;
69835;SDS011;57132;51.972;4.450;2022-09-01T12:10:44;1019.78;;;929.15;;
69835;SDS011;57132;51.972;4.450;2022-09-01T12:15:50;1044.30;;;942.13;;
69835;SDS011;57132;51.972;4.450;2022-09-01T12:18:22;1053.53;;;951.33;;
69835;SDS011;57132;51.972;4.450;2022-09-01T12:20:51;992.25;;;906.38;;
69835;SDS011;57132;51.972;4.450;2022-09-01T12:25:49;1012.60;;;921.60;;
69835;SDS011;57132;51.972;4.450;2022-09-01T12:28:17;1035.03;;;937.75;;
69835;SDS011;57132;51.972;4.450;2022-09-01T12:30:42;1027.22;;;931.38;;
69835;SDS011;57132;51.972;4.450;2022-09-01T12:33:09;1018.90;;;925.65;;
69835;SDS011;57132;51.972;4.450;2022-09-01T12:35:36;1011.47;;;919.58;;
69835;SDS011;57132;51.972;4.450;2022-09-01T12:40:42;1049.18;;;947.47;;
69835;SDS011;57132;51.972;4.450;2022-09-01T12:43:09;1028.47;;;932.78;;
69835;SDS011;57132;51.972;4.450;2022-09-01T12:45:42;1041.85;;;941.58;;
69835;SDS011;57132;51.972;4.450;2022-09-01T12:51:24;1023.33;;;930.65;;
69835;SDS011;57132;51.972;4.450;2022-09-01T12:53:54;1019.03;;;927.50;;
69835;SDS011;57132;51.972;4.450;2022-09-01T12:56:39;1073.22;;;962.10;;
69835;SDS011;57132;51.972;4.450;2022-09-01T12:59:11;1055.40;;;952.22;;
69835;SDS011;57132;51.972;4.450;2022-09-01T13:01:39;1049.10;;;946.38;;
69835;SDS011;57132;51.972;4.450;2022-09-01T13:04:26;1046.60;;;946.70;;
69835;SDS011;57132;51.972;4.450;2022-09-01T13:06:54;1070.60;;;962.08;;
69835;SDS011;57132;51.972;4.450;2022-09-01T13:09:30;1069.78;;;958.08;;
69835;SDS011;57132;51.972;4.450;2022-09-01T13:12:16;1082.80;;;966.75;;
69835;SDS011;57132;51.972;4.450;2022-09-01T13:14:43;1076.13;;;963.55;;
69835;SDS011;57132;51.972;4.450;2022-09-01T13:17:08;1074.22;;;964.08;;
69835;SDS011;57132;51.972;4.450;2022-09-01T13:19:34;1081.97;;;966.83;;
69835;SDS011;57132;51.972;4.450;2022-09-01T13:21:59;1092.38;;;976.25;;
69835;SDS011;57132;51.972;4.450;2022-09-01T13:24:24;1060.07;;;954.15;;
69835;SDS011;57132;51.972;4.450;2022-09-01T13:26:50;1074.22;;;960.13;;
69835;SDS011;57132;51.972;4.450;2022-09-01T13:29:19;1077.13;;;965.13;;
69835;SDS011;57132;51.972;4.450;2022-09-01T13:31:45;1073.85;;;961.72;;
69835;SDS011;57132;51.972;4.450;2022-09-01T13:34:10;1063.13;;;953.42;;
69835;SDS011;57132;51.972;4.450;2022-09-01T13:36:36;1083.63;;;967.10;;
69835;SDS011;57132;51.972;4.450;2022-09-01T13:39:01;1081.35;;;964.90;;
69835;SDS011;57132;51.972;4.450;2022-09-01T13:41:26;1083.57;;;964.92;;
69835;SDS011;57132;51.972;4.450;2022-09-01T13:43:52;1067.90;;;956.35;;
69835;SDS011;57132;51.972;4.450;2022-09-01T13:46:17;1074.13;;;963.13;;
69835;SDS011;57132;51.972;4.450;2022-09-01T13:48:43;1076.35;;;964.28;;
69835;SDS011;57132;51.972;4.450;2022-09-01T13:51:08;1087.45;;;974.28;;
69835;SDS011;57132;51.972;4.450;2022-09-01T13:53:34;1072.47;;;963.78;;
69835;SDS011;57132;51.972;4.450;2022-09-01T13:56:00;1050.07;;;949.15;;
69835;SDS011;57132;51.972;4.450;2022-09-01T13:58:25;1047.93;;;948.85;;
69835;SDS011;57132;51.972;4.450;2022-09-01T14:00:50;1023.03;;;931.30;;
69835;SDS011;57132;51.972;4.450;2022-09-01T14:03:17;1047.22;;;947.05;;
69835;SDS011;57132;51.972;4.450;2022-09-01T14:05:47;1050.88;;;950.35;;
69835;SDS011;57132;51.972;4.450;2022-09-01T14:08:15;1055.28;;;951.38;;
69835;SDS011;57132;51.972;4.450;2022-09-01T14:10:44;1074.35;;;966.35;;
69835;SDS011;57132;51.972;4.450;2022-09-01T14:13:14;1067.32;;;961.45;;
69835;SDS011;57132;51.972;4.450;2022-09-01T14:15:40;1179.68;;;999.53;;
69835;SDS011;57132;51.972;4.450;2022-09-01T14:18:06;1057.50;;;957.25;;
69835;SDS011;57132;51.972;4.450;2022-09-01T14:20:33;1074.78;;;966.38;;
69835;SDS011;57132;51.972;4.450;2022-09-01T14:23:00;1075.97;;;969.38;;
69835;SDS011;57132;51.972;4.450;2022-09-01T14:25:28;1098.50;;;980.15;;
69835;SDS011;57132;51.972;4.450;2022-09-01T14:27:57;1066.97;;;962.90;;
69835;SDS011;57132;51.972;4.450;2022-09-01T14:30:24;1084.03;;;974.40;;
69835;SDS011;57132;51.972;4.450;2022-09-01T14:32:50;1042.78;;;947.13;;
69835;SDS011;57132;51.972;4.450;2022-09-01T14:35:16;1024.43;;;931.42;;
69835;SDS011;57132;51.972;4.450;2022-09-01T14:37:44;1079.30;;;971.47;;
69835;SDS011;57132;51.972;4.450;2022-09-01T14:40:09;1094.50;;;983.75;;
69835;SDS011;57132;51.972;4.450;2022-09-01T14:42:38;1066.05;;;961.88;;
69835;SDS011;57132;51.972;4.450;2022-09-01T14:45:07;1087.65;;;978.38;;
69835;SDS011;57132;51.972;4.450;2022-09-01T14:47:35;1083.13;;;971.92;;
69835;SDS011;57132;51.972;4.450;2022-09-01T14:50:01;1080.00;;;971.45;;
69835;SDS011;57132;51.972;4.450;2022-09-01T14:52:27;1059.68;;;959.83;;
69835;SDS011;57132;51.972;4.450;2022-09-01T14:54:52;1065.03;;;962.35;;
69835;SDS011;57132;51.972;4.450;2022-09-01T14:57:18;1049.55;;;950.58;;
69835;SDS011;57132;51.972;4.450;2022-09-01T14:59:43;1046.45;;;949.10;;
69835;SDS011;57132;51.972;4.450;2022-09-01T15:02:09;1077.65;;;971.95;;
69835;SDS011;57132;51.972;4.450;2022-09-01T15:04:34;1030.85;;;937.85;;
69835;SDS011;57132;51.972;4.450;2022-09-01T15:07:00;1067.75;;;965.40;;
69835;SDS011;57132;51.972;4.450;2022-09-01T15:09:30;1038.78;;;945.50;;
69835;SDS011;57132;51.972;4.450;2022-09-01T15:11:55;1044.78;;;948.63;;
69835;SDS011;57132;51.972;4.450;2022-09-01T15:14:21;1077.00;;;969.90;;
69835;SDS011;57132;51.972;4.450;2022-09-01T15:16:46;1078.65;;;971.20;;
69835;SDS011;57132;51.972;4.450;2022-09-01T15:19:12;1039.75;;;944.00;;
69835;SDS011;57132;51.972;4.450;2022-09-01T15:21:39;1041.80;;;947.58;;
69835;SDS011;57132;51.972;4.450;2022-09-01T15:24:06;1068.20;;;965.15;;
69835;SDS011;57132;51.972;4.450;2022-09-01T15:26:33;1021.47;;;930.28;;
69835;SDS011;57132;51.972;4.450;2022-09-01T15:29:00;1026.53;;;935.15;;
69835;SDS011;57132;51.972;4.450;2022-09-01T15:31:26;1046.25;;;949.45;;